Time;durP1;ratioP1;P1;durP2;ratioP2;P2;SDS_P1;SDS_P2;PMS_P1;PMS_P2;Temp;Humidity;BMP_temperature;BMP_pressure;BME280_temperature;BME280_humidity;BME280_pressure;Samples;Min_cycle;Max_cycle;Signal;HPM_P1;HPM_P2
2022/07/06 00:00:51;;;;;;;;;20.40;19.40;;;;;22.26;97.45;99449.06;5090610;28;8858;-76
2022/07/06 00:03:19;;;;;;;;;22.80;21.60;;;;;22.36;98.28;99439.69;5089135;28;8844;-77
2022/07/06 00:05:48;;;;;;;;;18.20;18.20;;;;;22.47;98.11;99436.47;5091779;28;8864;-76
2022/07/06 00:08:17;;;;;;;;;18.40;17.60;;;;;22.58;97.63;99423.50;5090209;28;8847;-75
2022/07/06 00:10:46;;;;;;;;;17.60;16.40;;;;;22.66;96.16;99425.75;5056102;28;8889;-74
2022/07/06 00:13:14;;;;;;;;;19.40;18.40;;;;;22.72;95.42;99409.47;5091426;28;8874;-74
2022/07/06 00:15:44;;;;;;;;;20.60;20.40;;;;;22.65;91.91;99429.38;5072002;28;8910;-76
2022/07/06 00:18:13;;;;;;;;;20.00;19.00;;;;;22.63;93.09;99421.47;5088799;28;8984;-74
2022/07/06 00:20:41;;;;;;;;;20.20;19.80;;;;;22.68;94.14;99421.22;5088652;28;8841;-73
2022/07/06 00:23:10;;;;;;;;;20.00;19.00;;;;;22.76;94.06;99437.66;5088623;28;8881;-74
2022/07/06 00:25:38;;;;;;;;;24.00;22.00;;;;;22.82;93.32;99436.47;5088462;28;8950;-74
2022/07/06 00:28:07;;;;;;;;;16.80;16.80;;;;;22.72;91.91;99428.09;5071533;28;8834;-73
2022/07/06 00:30:36;;;;;;;;;21.20;20.60;;;;;22.61;89.46;99431.31;5088243;28;8857;-74
2022/07/06 00:33:06;;;;;;;;;18.00;16.60;;;;;22.43;90.98;99430.47;5022395;28;9186;-74
2022/07/06 00:35:35;;;;;;;;;20.40;20.00;;;;;22.52;93.34;99426.47;5088113;28;9073;-77
2022/07/06 00:38:04;;;;;;;;;19.60;18.80;;;;;22.51;92.02;99422.97;5088000;28;8845;-73
2022/07/06 00:40:33;;;;;;;;;21.60;19.60;;;;;22.38;91.48;99421.84;5054359;28;8861;-73
2022/07/06 00:43:02;;;;;;;;;21.60;19.00;;;;;22.48;93.36;99417.81;5054576;28;8895;-75
2022/07/06 00:45:30;;;;;;;;;22.80;19.20;;;;;22.56;93.31;99414.75;5087912;28;8869;-73
2022/07/06 00:47:59;;;;;;;;;21.00;19.20;;;;;22.57;91.93;99412.03;5072172;28;8856;-77
2022/07/06 00:50:29;;;;;;;;;20.00;17.40;;;;;22.54;91.34;99421.94;5072534;28;8836;-76
2022/07/06 00:53:01;;;;;;;;;20.60;19.00;;;;;22.25;89.53;99421.66;5090411;28;8851;-75
2022/07/06 00:55:31;;;;;;;;;20.20;19.60;;;;;22.00;93.07;99421.97;5088052;28;8859;-75
2022/07/06 00:58:02;;;;;;;;;19.20;17.80;;;;;22.11;93.74;99424.09;5072354;28;8859;-74
2022/07/06 01:00:32;;;;;;;;;22.40;22.20;;;;;22.02;94.39;99421.91;5087824;28;9638;-76
2022/07/06 01:03:01;;;;;;;;;21.20;19.80;;;;;21.68;93.72;99420.88;5087649;28;8885;-74
2022/07/06 01:05:32;;;;;;;;;21.60;19.60;;;;;21.67;93.58;99420.03;5054357;28;8854;-75
2022/07/06 01:08:00;;;;;;;;;18.80;18.60;;;;;21.58;93.53;99415.16;5039783;28;9686;-74
2022/07/06 01:10:29;;;;;;;;;20.00;18.80;;;;;21.59;93.93;99414.25;5092350;28;8842;-72
2022/07/06 01:12:58;;;;;;;;;19.80;19.80;;;;;21.51;93.84;99409.31;5021794;28;8849;-74
2022/07/06 01:15:27;;;;;;;;;22.40;21.60;;;;;21.61;94.88;99410.59;5021586;28;8865;-76
2022/07/06 01:17:55;;;;;;;;;21.80;19.00;;;;;21.46;94.82;99405.16;5021253;28;8845;-74
2022/07/06 01:20:31;;;;;;;;;18.60;16.80;;;;;21.36;95.81;99404.69;5054144;28;9037;-73
2022/07/06 01:23:01;;;;;;;;;17.80;17.80;;;;;21.46;94.44;99402.50;5037832;28;8994;-74
2022/07/06 01:25:29;;;;;;;;;19.80;18.00;;;;;21.37;94.22;99407.25;5070510;28;8833;-75
2022/07/06 01:27:58;;;;;;;;;20.40;18.40;;;;;20.96;97.51;99406.53;5053686;28;8868;-75
2022/07/06 01:30:27;;;;;;;;;18.40;18.40;;;;;21.06;96.71;99406.97;5053932;28;8838;-74
2022/07/06 01:32:55;;;;;;;;;19.00;18.00;;;;;21.00;96.88;99409.00;5087961;28;8859;-75
2022/07/06 01:35:25;;;;;;;;;20.60;18.20;;;;;21.09;96.41;99413.00;5088590;28;8886;-74
2022/07/06 01:37:55;;;;;;;;;20.00;16.20;;;;;21.14;97.77;99403.03;5088523;28;8843;-75
2022/07/06 01:40:24;;;;;;;;;17.60;17.60;;;;;21.03;95.99;99405.31;5071393;28;8863;-74
2022/07/06 01:42:52;;;;;;;;;19.20;18.60;;;;;20.99;97.36;99401.94;5087888;28;8827;-74
2022/07/06 01:45:21;;;;;;;;;23.00;21.00;;;;;20.77;98.19;99399.41;5088054;28;8870;-75
2022/07/06 01:47:50;;;;;;;;;17.40;16.80;;;;;20.92;97.59;99399.66;5122164;27;8843;-72
2022/07/06 01:50:18;;;;;;;;;17.60;16.40;;;;;20.94;97.93;99403.94;5088037;28;8848;-74
2022/07/06 01:52:48;;;;;;;;;16.40;14.60;;;;;20.92;97.07;99403.16;5071285;28;8879;-75
2022/07/06 01:55:19;;;;;;;;;17.80;17.00;;;;;20.98;97.01;99405.56;5087841;28;8863;-73
2022/07/06 01:57:48;;;;;;;;;20.40;18.40;;;;;20.78;98.78;99409.09;5088241;28;8851;-73
2022/07/06 02:00:16;;;;;;;;;16.60;15.80;;;;;20.84;98.50;99402.66;5087740;28;8866;-74
2022/07/06 02:02:49;;;;;;;;;19.20;19.20;;;;;20.82;98.17;99397.41;5087124;28;8859;-74
2022/07/06 02:05:18;;;;;;;;;18.80;16.60;;;;;20.94;98.01;99409.25;5053373;28;8877;-74
2022/07/06 02:07:47;;;;;;;;;17.80;16.00;;;;;21.00;97.58;99403.69;5087665;28;8874;-74
2022/07/06 02:10:16;;;;;;;;;14.40;14.40;;;;;21.02;97.63;99404.47;5037417;28;8847;-73
2022/07/06 02:12:46;;;;;;;;;15.60;15.60;;;;;21.15;97.40;99410.09;5088024;28;9609;-75
2022/07/06 02:15:15;;;;;;;;;15.80;15.40;;;;;21.16;97.50;99403.81;5088015;28;8863;-73
2022/07/06 02:17:43;;;;;;;;;16.00;16.00;;;;;21.24;96.34;99408.78;5087582;28;8832;-73
2022/07/06 02:20:12;;;;;;;;;17.20;17.00;;;;;21.29;94.74;99404.13;5087605;28;8832;-73
2022/07/06 02:22:41;;;;;;;;;17.00;16.00;;;;;21.23;95.04;99413.22;5087684;28;9660;-74
2022/07/06 02:25:09;;;;;;;;;15.60;14.60;;;;;21.27;95.06;99403.34;5087982;28;8848;-73
2022/07/06 02:27:40;;;;;;;;;15.20;15.20;;;;;21.39;95.35;99405.41;5073145;28;8843;-74
2022/07/06 02:30:12;;;;;;;;;13.80;13.40;;;;;21.10;95.18;99411.22;5091657;28;8940;-74
2022/07/06 02:32:42;;;;;;;;;15.60;14.00;;;;;21.06;94.10;99402.53;5074787;28;8855;-74
2022/07/06 02:35:11;;;;;;;;;18.00;16.80;;;;;21.11;94.13;99411.13;5073597;28;8981;-79
2022/07/06 02:37:40;;;;;;;;;16.40;16.40;;;;;20.95;93.67;99408.31;5056538;28;8942;-72
2022/07/06 02:40:10;;;;;;;;;19.20;15.00;;;;;20.87;94.82;99410.47;5039774;28;8841;-74
2022/07/06 02:42:39;;;;;;;;;14.40;14.40;;;;;20.86;95.13;99411.38;5073511;28;8845;-75
2022/07/06 02:45:10;;;;;;;;;16.40;15.20;;;;;20.96;94.73;99415.38;5073604;28;8912;-75
2022/07/06 02:47:40;;;;;;;;;15.40;13.60;;;;;20.98;94.96;99415.28;5073371;28;8837;-74
2022/07/06 02:50:10;;;;;;;;;14.40;13.00;;;;;21.10;95.97;99420.03;5073506;28;8833;-73
2022/07/06 02:52:38;;;;;;;;;13.60;13.40;;;;;21.09;95.07;99417.44;5073024;28;8857;-76
2022/07/06 02:55:11;;;;;;;;;17.40;15.80;;;;;20.83;95.78;99412.41;5073168;28;9056;-72
2022/07/06 02:57:41;;;;;;;;;14.20;14.20;;;;;20.85;95.37;99415.00;5109425;28;8849;-75
2022/07/06 03:00:12;;;;;;;;;17.80;17.80;;;;;20.95;95.12;99423.38;5075995;28;8860;-73
2022/07/06 03:02:43;;;;;;;;;17.20;16.40;;;;;20.88;96.24;99420.13;5073276;28;8858;-73
2022/07/06 03:05:12;;;;;;;;;16.80;16.00;;;;;20.79;95.68;99420.53;5106956;28;8846;-73
2022/07/06 03:07:41;;;;;;;;;12.20;12.20;;;;;20.66;95.79;99424.66;5069439;28;8895;-73
2022/07/06 03:10:10;;;;;;;;;16.80;15.40;;;;;20.67;96.41;99421.09;5052867;28;8836;-73
2022/07/06 03:12:40;;;;;;;;;16.00;14.40;;;;;20.82;95.72;99415.97;5077819;28;8876;-76
2022/07/06 03:15:10;;;;;;;;;15.60;15.20;;;;;20.54;95.42;99418.94;5089732;28;8876;-77
2022/07/06 03:17:40;;;;;;;;;57.50;46.50;;;;;20.56;95.88;99419.72;5072644;28;8845;-74
2022/07/06 03:20:12;;;;;;;;;25.80;22.80;;;;;20.52;96.16;99419.94;5056258;28;8822;-73
2022/07/06 03:22:41;;;;;;;;;10.20;10.20;;;;;20.49;95.49;99415.66;5072496;28;9127;-75
2022/07/06 03:25:12;;;;;;;;;14.60;14.40;;;;;20.54;95.45;99415.44;5072702;28;8865;-72
2022/07/06 03:27:41;;;;;;;;;15.00;15.00;;;;;20.41;95.66;99417.75;5089002;28;8865;-73
2022/07/06 03:30:13;;;;;;;;;17.60;15.00;;;;;20.37;95.79;99418.81;5055717;28;8849;-73
2022/07/06 03:32:47;;;;;;;;;14.40;14.40;;;;;20.41;95.99;99415.97;5025586;28;9630;-73
2022/07/06 03:35:18;;;;;;;;;17.40;15.20;;;;;20.33;95.36;99417.22;5072593;28;9579;-74
2022/07/06 03:37:49;;;;;;;;;16.00;15.00;;;;;20.35;96.45;99416.22;5055312;28;9008;-73
2022/07/06 03:40:18;;;;;;;;;14.00;13.60;;;;;20.33;95.88;99417.22;5090640;28;8836;-77
2022/07/06 03:42:48;;;;;;;;;13.20;13.20;;;;;20.40;96.15;99411.59;5089985;28;8844;-75
2022/07/06 03:45:17;;;;;;;;;16.40;16.40;;;;;20.34;95.82;99421.59;5090417;28;8902;-74
2022/07/06 03:47:47;;;;;;;;;15.00;15.00;;;;;20.23;94.94;99411.47;5073291;28;8851;-75
2022/07/06 03:50:15;;;;;;;;;14.40;14.40;;;;;20.29;95.93;99416.50;5124471;27;8855;-74
2022/07/06 03:52:45;;;;;;;;;11.00;11.00;;;;;20.13;96.68;99418.06;5056157;28;8851;-73
2022/07/06 03:55:14;;;;;;;;;17.20;17.20;;;;;20.09;95.06;99424.41;5089693;28;8844;-74
2022/07/06 03:57:48;;;;;;;;;15.60;15.20;;;;;19.83;96.84;99408.69;5090142;28;8839;-74
2022/07/06 04:00:21;;;;;;;;;31.25;28.50;;;;;19.78;97.58;99410.66;5057559;28;8893;-74
2022/07/06 04:02:57;;;;;;;;;20.00;18.60;;;;;20.00;97.76;99415.94;5090376;28;8840;-73
2022/07/06 04:05:31;;;;;;;;;20.40;18.60;;;;;19.96;96.91;99408.16;5090041;28;8854;-75
2022/07/06 04:08:00;;;;;;;;;18.20;18.00;;;;;19.75;97.24;99420.50;5055794;28;8848;-74
2022/07/06 04:10:41;;;;;;;;;15.40;15.40;;;;;19.46;100.00;99417.19;5073184;28;8836;-77
2022/07/06 04:13:09;;;;;;;;;18.20;17.80;;;;;19.29;100.00;99420.50;5090086;28;8851;-74
2022/07/06 04:15:39;;;;;;;;;19.80;18.20;;;;;19.42;100.00;99419.09;5089845;28;8920;-76
2022/07/06 04:18:08;;;;;;;;;23.40;20.60;;;;;19.39;100.00;99407.78;5073031;28;8836;-72
2022/07/06 04:20:43;;;;;;;;;18.80;18.80;;;;;19.44;100.00;99401.38;5090160;28;8950;-76
2022/07/06 04:23:14;;;;;;;;;17.60;17.60;;;;;19.34;100.00;99409.72;5055608;28;8848;-75
2022/07/06 04:25:42;;;;;;;;;27.40;26.00;;;;;19.47;100.00;99406.56;5073621;28;8863;-77
2022/07/06 04:28:12;;;;;;;;;20.40;20.40;;;;;19.27;100.00;99417.91;5089931;28;8878;-75
2022/07/06 04:30:41;;;;;;;;;25.40;20.40;;;;;19.29;100.00;99415.22;5055026;28;8856;-77
2022/07/06 04:33:13;;;;;;;;;38.75;34.25;;;;;19.44;100.00;99411.09;5072564;28;8929;-77
2022/07/06 04:35:44;;;;;;;;;15.80;15.00;;;;;19.45;100.00;99416.34;5039504;28;8843;-74
2022/07/06 04:38:14;;;;;;;;;24.60;22.80;;;;;19.35;100.00;99408.81;5072297;28;8824;-75
2022/07/06 04:40:46;;;;;;;;;28.20;24.00;;;;;19.46;98.75;99420.69;5089372;28;8968;-74
2022/07/06 04:43:18;;;;;;;;;20.80;20.80;;;;;19.19;100.00;99414.69;5072071;28;8839;-78
2022/07/06 04:45:46;;;;;;;;;22.80;22.00;;;;;19.32;100.00;99414.22;5072495;28;8856;-76
2022/07/06 04:48:15;;;;;;;;;24.60;22.20;;;;;19.52;99.75;99410.81;5077799;28;8936;-75
2022/07/06 04:50:44;;;;;;;;;23.40;23.40;;;;;19.50;98.58;99415.28;5075468;28;8860;-75
2022/07/06 04:53:19;;;;;;;;;23.60;22.00;;;;;19.46;98.77;99411.91;5089450;28;8878;-77
2022/07/06 04:55:48;;;;;;;;;21.80;21.00;;;;;19.65;98.29;99418.19;5088612;28;8859;-75
2022/07/06 04:58:17;;;;;;;;;25.40;23.80;;;;;19.73;98.77;99417.06;5088847;28;8851;-77
2022/07/06 05:00:47;;;;;;;;;22.60;22.00;;;;;19.68;97.87;99414.56;5088669;28;8859;-76
2022/07/06 05:03:16;;;;;;;;;26.00;25.00;;;;;19.62;96.39;99412.16;5088866;28;8859;-75
2022/07/06 05:05:45;;;;;;;;;26.20;23.40;;;;;19.56;96.88;99412.41;5088950;28;8847;-78
2022/07/06 05:08:14;;;;;;;;;24.00;23.80;;;;;19.32;98.42;99428.31;5088514;28;9005;-76
2022/07/06 05:10:44;;;;;;;;;23.80;23.80;;;;;19.47;98.00;99414.50;5088655;28;8900;-77
2022/07/06 05:13:12;;;;;;;;;22.80;22.80;;;;;19.58;98.72;99418.50;5071586;28;8852;-75
2022/07/06 05:15:41;;;;;;;;;27.40;23.40;;;;;19.67;95.92;99411.03;5071365;28;9658;-75
2022/07/06 05:18:10;;;;;;;;;24.00;23.40;;;;;19.48;98.23;99416.19;5088333;28;8839;-77
2022/07/06 05:20:40;;;;;;;;;30.80;27.20;;;;;19.58;97.08;99421.13;5071954;28;8859;-76
2022/07/06 05:23:10;;;;;;;;;40.00;33.50;;;;;19.59;98.61;99425.53;5088317;28;9592;-77
2022/07/06 05:25:38;;;;;;;;;27.40;25.40;;;;;19.50;99.38;99423.22;5071399;28;8885;-77
2022/07/06 05:28:08;;;;;;;;;23.60;23.60;;;;;19.64;97.26;99424.41;5088024;28;9737;-76
2022/07/06 05:30:37;;;;;;;;;30.80;27.80;;;;;19.67;98.11;99420.78;5054318;28;8936;-76
2022/07/06 05:33:06;;;;;;;;;30.20;29.80;;;;;19.83;97.99;99416.63;5088609;28;8873;-77
2022/07/06 05:35:34;;;;;;;;;30.40;27.20;;;;;19.81;97.32;99429.06;5088166;28;8910;-77
2022/07/06 05:38:26;;;;;;;;;31.80;30.40;;;;;19.72;97.83;99431.19;5043211;28;8930;-75
2022/07/06 05:40:56;;;;;;;;;30.25;30.25;;;;;19.74;98.00;99430.22;5070317;28;10151;-77
2022/07/06 05:43:26;;;;;;;;;27.60;27.60;;;;;19.70;98.29;99439.19;5070296;28;8846;-78
2022/07/06 05:45:56;;;;;;;;;29.60;29.60;;;;;19.48;99.40;99437.38;5070425;28;8922;-76
2022/07/06 05:51:12;;;;;;;;;31.00;29.20;;;;;19.66;97.79;99433.16;4990344;28;8862;-77
2022/07/06 05:53:43;;;;;;;;;30.80;29.80;;;;;19.77;97.10;99437.16;5007189;28;8877;-76
2022/07/06 05:56:11;;;;;;;;;28.25;27.25;;;;;20.05;95.51;99426.31;4974373;28;9001;-76
2022/07/06 05:58:42;;;;;;;;;31.40;28.40;;;;;20.10;94.59;99426.16;4959622;28;8842;-76
2022/07/06 06:01:11;;;;;;;;;29.25;28.75;;;;;20.24;94.95;99429.94;5006315;28;8954;-78
2022/07/06 06:03:45;;;;;;;;;31.00;30.75;;;;;20.43;93.56;99430.03;4990735;28;8854;-79
2022/07/06 06:06:14;;;;;;;;;31.80;30.80;;;;;20.75;91.08;99432.22;4974037;28;8881;-78
2022/07/06 06:08:43;;;;;;;;;28.60;27.80;;;;;20.94;89.68;99422.50;4992702;28;8870;-77
2022/07/06 06:11:12;;;;;;;;;30.00;29.60;;;;;20.70;89.68;99435.09;5025919;28;8832;-75
2022/07/06 06:13:43;;;;;;;;;33.25;30.00;;;;;20.58;89.19;99436.41;5010182;28;8961;-78
2022/07/06 06:16:12;;;;;;;;;34.50;30.75;;;;;20.61;90.98;99438.97;4993901;28;8872;-76
2022/07/06 06:18:41;;;;;;;;;33.80;27.40;;;;;20.86;88.54;99437.91;5026331;28;8840;-76
2022/07/06 06:21:11;;;;;;;;;35.00;32.40;;;;;20.89;88.75;99426.28;5010023;28;8844;-78
2022/07/06 06:23:39;;;;;;;;;27.20;27.20;;;;;20.78;88.17;99435.59;5009755;28;8893;-76
2022/07/06 06:26:08;;;;;;;;;29.40;27.40;;;;;20.95;86.39;99440.13;4977541;28;9069;-77
2022/07/06 06:28:37;;;;;;;;;26.80;26.40;;;;;21.04;86.42;99436.22;5057012;28;8970;-76
2022/07/06 06:31:07;;;;;;;;;28.00;27.20;;;;;21.13;86.12;99433.13;5088835;28;8967;-77
2022/07/06 06:33:36;;;;;;;;;27.40;27.40;;;;;21.11;86.79;99429.69;5071456;28;8963;-76
2022/07/06 06:36:05;;;;;;;;;29.40;26.20;;;;;21.24;84.65;99437.94;5089765;28;8840;-76
2022/07/06 06:38:34;;;;;;;;;31.80;30.20;;;;;21.21;82.60;99420.41;5072875;28;8967;-75
2022/07/06 06:41:03;;;;;;;;;31.00;29.60;;;;;21.09;83.50;99434.19;5071798;28;8928;-81
2022/07/06 06:43:31;;;;;;;;;28.00;27.00;;;;;21.05;83.55;99424.66;5121731;28;8856;-80
2022/07/06 06:46:07;;;;;;;;;29.80;27.80;;;;;21.15;84.23;99420.69;5070705;28;8878;-76
2022/07/06 06:48:36;;;;;;;;;29.40;29.20;;;;;21.22;82.21;99414.13;5088663;28;8836;-75
2022/07/06 06:51:05;;;;;;;;;28.50;28.25;;;;;21.00;81.84;99416.94;5070341;28;8858;-76
2022/07/06 06:53:33;;;;;;;;;28.00;28.00;;;;;21.07;80.91;99419.31;5071031;28;8843;-78
2022/07/06 06:56:08;;;;;;;;;33.00;32.00;;;;;20.98;82.00;99420.56;5070708;28;8990;-77
2022/07/06 06:58:37;;;;;;;;;26.60;24.40;;;;;21.09;81.02;99417.44;5086832;28;9638;-75
2022/07/06 07:01:26;;;;;;;;;23.80;23.40;;;;;21.61;81.19;99417.69;5088665;28;8973;-77
2022/07/06 07:03:56;;;;;;;;;25.40;25.00;;;;;21.68;79.12;99411.16;5070622;28;8982;-76
2022/07/06 07:06:24;;;;;;;;;25.20;25.20;;;;;21.70;79.40;99419.03;5053756;28;8860;-76
2022/07/06 07:08:54;;;;;;;;;28.00;26.40;;;;;21.93;77.49;99415.25;5087570;28;8854;-76
2022/07/06 07:11:22;;;;;;;;;27.20;25.80;;;;;21.91;76.93;99411.78;5088807;28;8843;-77
2022/07/06 07:13:51;;;;;;;;;29.60;25.80;;;;;22.14;75.47;99416.84;5072987;28;8871;-77
2022/07/06 07:16:19;;;;;;;;;25.20;25.00;;;;;22.15;73.03;99407.91;5040258;28;8990;-77
2022/07/06 07:18:50;;;;;;;;;23.20;22.20;;;;;22.27;74.42;99409.16;5057237;28;8816;-77
2022/07/06 07:21:18;;;;;;;;;22.80;22.00;;;;;22.61;72.46;99403.88;5107047;28;8836;-77
2022/07/06 07:23:48;;;;;;;;;24.40;24.40;;;;;22.66;73.18;99409.81;5091148;28;8860;-76
2022/07/06 07:26:17;;;;;;;;;21.80;21.00;;;;;22.73;70.50;99400.56;5074107;28;8847;-75
2022/07/06 07:28:46;;;;;;;;;20.60;20.40;;;;;22.35;72.40;99406.94;5092087;28;8862;-77
2022/07/06 07:31:14;;;;;;;;;21.20;21.20;;;;;22.10;71.37;99422.41;5073590;28;8859;-75
2022/07/06 07:33:43;;;;;;;;;21.00;20.20;;;;;21.88;72.76;99420.78;5091881;28;8879;-76
2022/07/06 07:36:13;;;;;;;;;22.00;21.00;;;;;21.85;73.63;99412.97;5092819;28;8871;-78
2022/07/06 07:38:42;;;;;;;;;25.00;23.80;;;;;22.32;72.57;99416.88;5124923;27;8839;-77
2022/07/06 07:41:13;;;;;;;;;22.80;22.60;;;;;22.28;72.05;99413.50;5091304;28;8835;-76
2022/07/06 07:43:42;;;;;;;;;20.00;20.00;;;;;22.51;70.65;99412.34;5091997;28;8896;-77
2022/07/06 07:46:11;;;;;;;;;20.80;20.80;;;;;22.49;69.87;99416.00;5074233;28;8847;-74
2022/07/06 07:48:40;;;;;;;;;15.80;15.80;;;;;22.27;71.65;99411.81;5090228;28;8867;-76
2022/07/06 07:51:08;;;;;;;;;22.20;21.40;;;;;22.35;70.17;99406.94;5124547;27;8840;-76
2022/07/06 07:53:38;;;;;;;;;17.20;16.40;;;;;22.50;69.85;99417.75;5090909;28;8978;-77
2022/07/06 07:56:07;;;;;;;;;22.00;19.20;;;;;22.62;69.13;99416.22;5091952;28;8835;-77
2022/07/06 07:58:35;;;;;;;;;20.40;19.20;;;;;22.98;68.47;99418.72;5091390;28;9788;-75
2022/07/06 08:01:05;;;;;;;;;21.00;21.00;;;;;22.71;68.03;99418.41;5090875;28;8836;-76
2022/07/06 08:03:34;;;;;;;;;18.00;18.00;;;;;22.68;68.94;99421.22;5092142;28;8844;-76
2022/07/06 08:06:02;;;;;;;;;20.40;20.00;;;;;22.78;68.47;99422.47;5092161;28;8948;-76
2022/07/06 08:08:31;;;;;;;;;18.40;18.40;;;;;23.06;66.46;99432.53;5090790;28;9124;-76
2022/07/06 08:11:01;;;;;;;;;17.80;17.80;;;;;23.11;66.70;99429.59;5091951;28;8843;-76
2022/07/06 08:13:47;;;;;;;;;17.00;16.60;;;;;23.18;67.72;99422.16;5090711;28;8946;-76
2022/07/06 08:16:16;;;;;;;;;21.40;21.40;;;;;22.62;67.52;99425.06;5090452;28;8952;-77
2022/07/06 08:18:44;;;;;;;;;17.40;17.40;;;;;22.75;68.05;99426.13;5091820;28;8920;-75
2022/07/06 08:21:13;;;;;;;;;18.40;18.40;;;;;22.83;68.07;99422.22;5072933;28;8840;-76
2022/07/06 08:23:59;;;;;;;;;19.60;19.60;;;;;22.90;67.08;99419.13;5089816;28;8858;-74
2022/07/06 08:26:30;;;;;;;;;19.40;17.60;;;;;22.95;66.55;99433.06;5096861;28;8856;-76
2022/07/06 08:28:59;;;;;;;;;16.40;16.40;;;;;22.57;68.61;99422.66;5092485;28;8844;-75
2022/07/06 08:31:28;;;;;;;;;20.80;20.80;;;;;23.06;66.94;99432.53;5091713;28;8886;-76
2022/07/06 08:34:17;;;;;;;;;17.60;17.60;;;;;22.77;66.81;99434.03;5091524;28;8847;-75
2022/07/06 08:36:45;;;;;;;;;19.20;19.20;;;;;23.00;66.67;99426.63;5089846;28;8916;-78
2022/07/06 08:39:14;;;;;;;;;20.20;19.00;;;;;23.23;65.76;99439.59;5091089;28;8928;-77
2022/07/06 08:41:47;;;;;;;;;16.60;16.20;;;;;23.02;65.58;99438.91;5072229;28;9581;-75
2022/07/06 08:44:16;;;;;;;;;19.40;19.20;;;;;23.15;66.26;99432.00;5055323;28;8871;-76
2022/07/06 08:46:46;;;;;;;;;17.80;17.20;;;;;23.27;66.64;99437.59;5089357;28;8840;-75
2022/07/06 08:49:17;;;;;;;;;18.40;16.60;;;;;23.42;65.32;99436.78;5090718;28;8904;-76
2022/07/06 08:51:48;;;;;;;;;19.00;19.00;;;;;23.34;64.55;99438.97;5072697;28;8819;-76
2022/07/06 08:54:19;;;;;;;;;19.60;19.20;;;;;23.62;64.19;99433.00;5055483;28;8832;-75
2022/07/06 08:56:50;;;;;;;;;17.60;16.00;;;;;23.25;65.30;99439.47;5089263;28;9582;-75
2022/07/06 08:59:19;;;;;;;;;20.00;19.20;;;;;23.20;66.34;99438.91;5089134;28;8852;-75
2022/07/06 09:01:48;;;;;;;;;19.00;17.40;;;;;23.46;64.20;99443.66;5071531;28;8840;-76
2022/07/06 09:04:17;;;;;;;;;19.20;18.40;;;;;23.44;64.76;99448.19;5088514;28;8886;-75
2022/07/06 09:06:48;;;;;;;;;21.20;20.20;;;;;23.28;64.83;99436.66;5088956;28;8966;-77
2022/07/06 09:09:21;;;;;;;;;20.20;19.80;;;;;22.93;66.17;99444.69;5088684;28;8836;-77
2022/07/06 09:11:52;;;;;;;;;18.60;18.60;;;;;23.13;65.84;99452.50;5090416;28;8854;-78
2022/07/06 09:14:20;;;;;;;;;19.80;19.80;;;;;23.29;65.01;99455.22;5070311;28;8841;-73
2022/07/06 09:16:53;;;;;;;;;18.20;17.80;;;;;23.26;64.82;99443.88;5087454;28;8858;-73
2022/07/06 09:19:22;;;;;;;;;22.00;20.20;;;;;23.21;65.46;99449.44;5088068;28;9691;-76
2022/07/06 09:21:51;;;;;;;;;23.00;21.40;;;;;23.40;64.26;99443.97;5054355;28;8870;-77
2022/07/06 09:24:19;;;;;;;;;21.60;21.20;;;;;23.59;64.27;99437.63;5038175;28;8999;-76
2022/07/06 09:26:49;;;;;;;;;21.40;19.80;;;;;23.61;63.63;99433.94;5087667;28;8949;-78
2022/07/06 09:29:19;;;;;;;;;16.80;16.80;;;;;23.88;63.04;99428.03;5054289;28;8876;-76
2022/07/06 09:31:58;;;;;;;;;16.20;16.20;;;;;23.55;62.98;99437.81;5070300;28;8846;-77
2022/07/06 09:34:42;;;;;;;;;14.40;14.40;;;;;23.64;63.43;99431.09;5087677;28;8861;-74
2022/07/06 09:37:11;;;;;;;;;24.00;24.00;;;;;23.72;63.49;99434.19;5086689;28;8841;-73
2022/07/06 09:39:40;;;;;;;;;18.00;18.00;;;;;23.81;63.17;99431.97;5087279;28;8845;-80
2022/07/06 09:42:09;;;;;;;;;17.80;16.60;;;;;23.83;62.94;99424.75;5087693;28;8845;-75
2022/07/06 09:44:40;;;;;;;;;18.60;17.60;;;;;23.83;62.76;99428.28;5087127;28;8896;-74
2022/07/06 09:47:10;;;;;;;;;19.00;18.60;;;;;23.86;61.63;99433.44;5087434;28;8875;-76
2022/07/06 09:49:40;;;;;;;;;17.20;16.20;;;;;23.87;61.60;99424.47;5087005;28;8876;-74
2022/07/06 09:52:11;;;;;;;;;14.60;14.60;;;;;24.05;61.02;99433.22;5028265;28;8867;-78
2022/07/06 09:54:40;;;;;;;;;15.20;15.20;;;;;24.10;58.98;99438.28;5069709;28;8976;-78
2022/07/06 09:57:09;;;;;;;;;13.20;13.20;;;;;23.65;60.50;99440.81;5069994;28;8910;-73
2022/07/06 09:59:39;;;;;;;;;11.60;11.60;;;;;23.67;61.34;99430.94;5054136;28;8956;-76
2022/07/06 10:02:09;;;;;;;;;14.40;14.40;;;;;23.89;60.45;99446.59;5070204;28;9135;-73
2022/07/06 10:04:38;;;;;;;;;17.40;17.40;;;;;23.89;60.03;99453.69;5086959;28;8860;-73
2022/07/06 10:07:08;;;;;;;;;16.00;16.00;;;;;23.80;59.76;99443.56;5037605;28;9603;-73
2022/07/06 10:09:38;;;;;;;;;15.40;13.40;;;;;23.72;59.20;99446.63;5070123;28;8888;-75
2022/07/06 10:12:11;;;;;;;;;14.20;14.20;;;;;23.94;58.45;99435.66;5037281;28;8922;-75
2022/07/06 10:14:41;;;;;;;;;14.00;13.20;;;;;24.41;57.70;99428.50;5057380;28;8845;-74
2022/07/06 10:17:19;;;;;;;;;3.20;3.20;;;;;24.27;57.91;99451.50;5088742;28;8903;-76
2022/07/06 10:19:50;;;;;;;;;11.20;10.40;;;;;24.27;58.14;99434.63;5089312;28;8882;-73
2022/07/06 10:22:19;;;;;;;;;15.80;15.80;;;;;24.16;57.33;99445.06;5091184;28;9599;-73
2022/07/06 10:24:50;;;;;;;;;13.40;11.60;;;;;24.54;56.20;99433.97;5073282;28;9034;-78
2022/07/06 10:27:18;;;;;;;;;11.40;11.00;;;;;24.45;56.24;99443.34;5088570;28;8852;-75
2022/07/06 10:29:49;;;;;;;;;15.40;14.20;;;;;24.80;55.82;99435.94;5087623;28;8878;-76
2022/07/06 10:32:20;;;;;;;;;12.20;12.20;;;;;24.92;55.98;99428.13;5087720;28;8856;-72
2022/07/06 10:34:49;;;;;;;;;13.00;13.00;;;;;25.01;55.17;99432.88;5088902;28;8840;-73
2022/07/06 10:37:28;;;;;;;;;14.00;12.60;;;;;25.10;54.16;99418.97;5087211;28;8855;-75
2022/07/06 10:42:45;;;;;;;;;13.60;13.60;;;;;25.06;55.15;99428.97;5087710;28;8860;-75
2022/07/06 10:45:20;;;;;;;;;13.60;13.60;;;;;25.29;53.79;99432.03;5088786;28;8959;-75
2022/07/06 10:48:18;;;;;;;;;14.80;13.40;;;;;25.33;53.85;99422.91;5089535;28;8874;-74
2022/07/06 10:50:49;;;;;;;;;13.40;12.80;;;;;24.85;54.00;99419.63;5090468;28;8988;-73
2022/07/06 10:53:23;;;;;;;;;14.80;14.00;;;;;24.81;55.03;99429.63;5091295;28;8851;-74
2022/07/06 10:55:54;;;;;;;;;12.20;12.20;;;;;24.64;55.30;99427.16;5092506;28;8848;-75
2022/07/06 10:58:47;;;;;;;;;10.20;10.20;;;;;24.90;54.60;99422.88;5092470;28;8843;-73
2022/07/06 11:01:17;;;;;;;;;11.20;11.20;;;;;24.94;52.59;99427.06;5091478;28;9558;-73
2022/07/06 11:03:47;;;;;;;;;10.40;10.00;;;;;24.89;53.06;99418.50;5092794;28;8843;-76
2022/07/06 11:06:17;;;;;;;;;13.00;13.00;;;;;25.15;54.14;99422.19;5092643;28;9027;-72
2022/07/06 11:08:55;;;;;;;;;9.20;9.20;;;;;25.35;51.42;99423.66;5056938;28;8905;-75
2022/07/06 11:11:26;;;;;;;;;10.00;10.00;;;;;25.21;51.11;99427.16;5090971;28;8870;-75
2022/07/06 11:13:57;;;;;;;;;9.40;9.40;;;;;25.23;51.78;99424.41;5092756;28;8839;-73
2022/07/06 11:16:28;;;;;;;;;9.00;9.00;;;;;25.29;51.57;99416.91;5092415;28;8863;-73
2022/07/06 11:19:09;;;;;;;;;9.80;9.80;;;;;25.28;50.75;99430.34;5092254;28;8917;-75
2022/07/06 11:21:45;;;;;;;;;10.00;10.00;;;;;25.36;51.18;99422.69;5074244;28;8852;-74
2022/07/06 11:24:16;;;;;;;;;6.40;6.40;;;;;25.27;51.01;99418.81;5091201;28;8916;-74
2022/07/06 11:26:46;;;;;;;;;6.80;6.80;;;;;25.19;51.35;99423.72;5091645;28;8962;-75
2022/07/06 11:29:17;;;;;;;;;12.00;11.60;;;;;25.59;50.85;99423.88;5091332;28;8836;-73
2022/07/06 11:31:48;;;;;;;;;10.40;10.40;;;;;25.70;51.12;99409.81;5089466;28;8854;-76
2022/07/06 11:34:20;;;;;;;;;10.60;10.60;;;;;25.78;50.91;99420.00;5055901;28;8892;-75
2022/07/06 11:36:49;;;;;;;;;8.60;8.60;;;;;25.82;49.64;99413.50;5089203;28;8842;-76
2022/07/06 11:39:18;;;;;;;;;9.00;9.00;;;;;25.64;49.72;99427.09;5071000;28;8854;-74
2022/07/06 11:41:46;;;;;;;;;7.00;7.00;;;;;25.93;48.99;99416.34;5071492;28;9012;-71
2022/07/06 11:44:19;;;;;;;;;11.80;10.60;;;;;26.10;49.12;99419.72;5088162;28;8845;-74